sensor_id;sensor_type;location;lat;lon;timestamp;pressure;altitude;pressure_sealevel;temperature;humidity
8641;BME280;4358;42.100;25.222;2023-03-19T00:02:04;100689.19;;;5.67;95.97
8641;BME280;4358;42.100;25.222;2023-03-19T00:04:32;100697.41;;;5.83;94.97
8641;BME280;4358;42.100;25.222;2023-03-19T00:06:58;100692.19;;;5.81;95.62
8641;BME280;4358;42.100;25.222;2023-03-19T00:09:25;100700.00;;;5.84;94.76
8641;BME280;4358;42.100;25.222;2023-03-19T00:11:53;100692.88;;;5.88;95.56
8641;BME280;4358;42.100;25.222;2023-03-19T00:14:22;100681.78;;;5.78;95.54
8641;BME280;4358;42.100;25.222;2023-03-19T00:16:50;100699.72;;;5.93;95.08
8641;BME280;4358;42.100;25.222;2023-03-19T00:19:16;100699.00;;;5.88;95.50
8641;BME280;4358;42.100;25.222;2023-03-19T00:21:43;100695.03;;;6.02;94.54
8641;BME280;4358;42.100;25.222;2023-03-19T00:24:11;100689.59;;;6.06;94.44
8641;BME280;4358;42.100;25.222;2023-03-19T00:26:38;100699.19;;;6.07;94.03
8641;BME280;4358;42.100;25.222;2023-03-19T00:29:05;100688.56;;;6.10;92.99
8641;BME280;4358;42.100;25.222;2023-03-19T00:31:34;100672.31;;;5.97;93.30
8641;BME280;4358;42.100;25.222;2023-03-19T00:34:01;100686.19;;;6.03;92.36
8641;BME280;4358;42.100;25.222;2023-03-19T00:36:28;100688.84;;;6.03;92.05
8641;BME280;4358;42.100;25.222;2023-03-19T00:38:56;100682.56;;;6.07;92.22
8641;BME280;4358;42.100;25.222;2023-03-19T00:41:23;100687.75;;;6.08;92.54
8641;BME280;4358;42.100;25.222;2023-03-19T00:43:54;100688.53;;;6.12;93.06
8641;BME280;4358;42.100;25.222;2023-03-19T00:46:22;100681.19;;;6.20;92.98
8641;BME280;4358;42.100;25.222;2023-03-19T00:48:50;100680.66;;;6.33;93.29
8641;BME280;4358;42.100;25.222;2023-03-19T00:51:20;100686.91;;;6.31;89.70
8641;BME280;4358;42.100;25.222;2023-03-19T00:53:47;100679.06;;;6.29;89.97
8641;BME280;4358;42.100;25.222;2023-03-19T00:56:15;100681.66;;;6.31;90.33
8641;BME280;4358;42.100;25.222;2023-03-19T00:58:43;100684.56;;;6.47;90.03
8641;BME280;4358;42.100;25.222;2023-03-19T01:01:11;100680.63;;;6.58;89.13
8641;BME280;4358;42.100;25.222;2023-03-19T01:03:39;100687.13;;;6.71;85.33
8641;BME280;4358;42.100;25.222;2023-03-19T01:06:07;100689.75;;;6.71;83.67
8641;BME280;4358;42.100;25.222;2023-03-19T01:08:34;100690.75;;;6.69;81.74
8641;BME280;4358;42.100;25.222;2023-03-19T01:11:05;100681.84;;;6.71;81.12
8641;BME280;4358;42.100;25.222;2023-03-19T01:13:32;100684.72;;;6.65;81.13
8641;BME280;4358;42.100;25.222;2023-03-19T01:15:59;100684.72;;;6.65;80.39
8641;BME280;4358;42.100;25.222;2023-03-19T01:18:26;100682.72;;;6.72;79.98
8641;BME280;4358;42.100;25.222;2023-03-19T01:20:53;100683.56;;;6.72;80.34
8641;BME280;4358;42.100;25.222;2023-03-19T01:23:21;100685.53;;;6.67;80.21
8641;BME280;4358;42.100;25.222;2023-03-19T01:25:48;100686.44;;;6.66;80.71
8641;BME280;4358;42.100;25.222;2023-03-19T01:28:14;100687.72;;;6.56;81.81
8641;BME280;4358;42.100;25.222;2023-03-19T01:30:41;100681.75;;;6.51;82.52
8641;BME280;4358;42.100;25.222;2023-03-19T01:33:08;100676.31;;;6.56;82.51
8641;BME280;4358;42.100;25.222;2023-03-19T01:35:35;100684.16;;;6.57;83.40
8641;BME280;4358;42.100;25.222;2023-03-19T01:38:02;100672.97;;;6.51;84.44
8641;BME280;4358;42.100;25.222;2023-03-19T01:40:30;100681.63;;;6.54;84.22
8641;BME280;4358;42.100;25.222;2023-03-19T01:43:12;100686.22;;;6.49;84.16
8641;BME280;4358;42.100;25.222;2023-03-19T01:45:41;100678.56;;;6.43;84.99
8641;BME280;4358;42.100;25.222;2023-03-19T01:48:16;100681.53;;;6.34;85.61
8641;BME280;4358;42.100;25.222;2023-03-19T01:50:45;100681.69;;;6.29;84.58
8641;BME280;4358;42.100;25.222;2023-03-19T01:53:16;100678.72;;;6.15;86.65
8641;BME280;4358;42.100;25.222;2023-03-19T01:55:47;100684.03;;;6.14;86.76
8641;BME280;4358;42.100;25.222;2023-03-19T01:58:14;100684.03;;;6.14;86.29
8641;BME280;4358;42.100;25.222;2023-03-19T02:00:41;100683.63;;;6.01;88.05
8641;BME280;4358;42.100;25.222;2023-03-19T02:03:08;100684.63;;;5.97;85.16
8641;BME280;4358;42.100;25.222;2023-03-19T02:05:36;100685.97;;;6.09;86.06
8641;BME280;4358;42.100;25.222;2023-03-19T02:08:08;100696.31;;;6.15;85.07
8641;BME280;4358;42.100;25.222;2023-03-19T02:10:37;100692.94;;;6.11;84.57
8641;BME280;4358;42.100;25.222;2023-03-19T02:13:06;100688.75;;;6.06;83.75
8641;BME280;4358;42.100;25.222;2023-03-19T02:15:33;100696.66;;;6.06;84.02
8641;BME280;4358;42.100;25.222;2023-03-19T02:18:00;100696.00;;;5.99;83.94
8641;BME280;4358;42.100;25.222;2023-03-19T02:20:31;100690.56;;;6.04;83.51
8641;BME280;4358;42.100;25.222;2023-03-19T02:23:07;100686.31;;;6.00;83.55
8641;BME280;4358;42.100;25.222;2023-03-19T02:28:15;100686.50;;;5.95;85.21
8641;BME280;4358;42.100;25.222;2023-03-19T02:30:44;100695.84;;;5.77;85.92
8641;BME280;4358;42.100;25.222;2023-03-19T02:33:14;100696.56;;;5.82;86.66
8641;BME280;4358;42.100;25.222;2023-03-19T02:35:44;100687.91;;;5.79;85.06
8641;BME280;4358;42.100;25.222;2023-03-19T02:38:12;100691.34;;;5.81;84.99
8641;BME280;4358;42.100;25.222;2023-03-19T02:40:44;100697.47;;;5.81;84.39
8641;BME280;4358;42.100;25.222;2023-03-19T02:43:15;100700.00;;;5.84;84.33
8641;BME280;4358;42.100;25.222;2023-03-19T02:45:42;100696.56;;;5.82;83.74
8641;BME280;4358;42.100;25.222;2023-03-19T02:48:08;100700.75;;;5.89;82.56
8641;BME280;4358;42.100;25.222;2023-03-19T02:50:35;100699.09;;;5.85;86.90
8641;BME280;4358;42.100;25.222;2023-03-19T02:53:02;100678.66;;;5.67;90.46
8641;BME280;4358;42.100;25.222;2023-03-19T02:55:29;100707.03;;;5.84;91.28
8641;BME280;4358;42.100;25.222;2023-03-19T02:57:56;100702.38;;;5.92;85.07
8641;BME280;4358;42.100;25.222;2023-03-19T03:00:24;100710.16;;;5.97;83.43
8641;BME280;4358;42.100;25.222;2023-03-19T03:02:53;100712.50;;;6.04;82.81
8641;BME280;4358;42.100;25.222;2023-03-19T03:05:20;100712.47;;;6.06;80.83
8641;BME280;4358;42.100;25.222;2023-03-19T03:07:47;100709.13;;;6.01;82.09
8641;BME280;4358;42.100;25.222;2023-03-19T03:10:14;100705.78;;;5.95;82.46
8641;BME280;4358;42.100;25.222;2023-03-19T03:12:41;100707.63;;;5.93;81.22
8641;BME280;4358;42.100;25.222;2023-03-19T03:15:08;100718.19;;;5.92;82.38
8641;BME280;4358;42.100;25.222;2023-03-19T03:17:37;100719.41;;;5.82;83.64
8641;BME280;4358;42.100;25.222;2023-03-19T03:20:06;100714.91;;;5.85;83.79
8641;BME280;4358;42.100;25.222;2023-03-19T03:22:34;100723.63;;;5.87;85.76
8641;BME280;4358;42.100;25.222;2023-03-19T03:25:01;100730.41;;;5.94;85.05
8641;BME280;4358;42.100;25.222;2023-03-19T03:27:27;100722.72;;;5.88;85.19
8641;BME280;4358;42.100;25.222;2023-03-19T03:29:54;100740.06;;;5.95;84.40
8641;BME280;4358;42.100;25.222;2023-03-19T03:32:21;100737.22;;;6.02;84.90
8641;BME280;4358;42.100;25.222;2023-03-19T03:34:50;100730.38;;;5.96;85.19
8641;BME280;4358;42.100;25.222;2023-03-19T03:37:16;100739.34;;;5.90;85.32
8641;BME280;4358;42.100;25.222;2023-03-19T03:39:44;100737.41;;;5.95;85.02
8641;BME280;4358;42.100;25.222;2023-03-19T03:42:10;100740.59;;;5.79;87.74
8641;BME280;4358;42.100;25.222;2023-03-19T03:44:37;100736.06;;;5.82;88.55
8641;BME280;4358;42.100;25.222;2023-03-19T03:47:04;100734.16;;;5.87;88.53
8641;BME280;4358;42.100;25.222;2023-03-19T03:49:31;100740.22;;;5.91;87.60
8641;BME280;4358;42.100;25.222;2023-03-19T03:51:59;100739.19;;;5.95;88.14
8641;BME280;4358;42.100;25.222;2023-03-19T03:54:26;100745.16;;;6.00;87.66
8641;BME280;4358;42.100;25.222;2023-03-19T03:56:53;100749.34;;;6.06;87.80
8641;BME280;4358;42.100;25.222;2023-03-19T03:59:20;100741.22;;;6.12;87.27
8641;BME280;4358;42.100;25.222;2023-03-19T04:01:47;100746.25;;;6.18;86.90
8641;BME280;4358;42.100;25.222;2023-03-19T04:04:14;100743.50;;;6.22;87.36
8641;BME280;4358;42.100;25.222;2023-03-19T04:06:41;100739.06;;;6.23;87.56
8641;BME280;4358;42.100;25.222;2023-03-19T04:09:09;100737.66;;;6.13;87.87
8641;BME280;4358;42.100;25.222;2023-03-19T04:11:40;100736.19;;;6.06;89.90
8641;BME280;4358;42.100;25.222;2023-03-19T04:14:07;100731.00;;;6.03;91.46
8641;BME280;4358;42.100;25.222;2023-03-19T04:16:33;100737.63;;;6.14;91.29
8641;BME280;4358;42.100;25.222;2023-03-19T04:19:00;100737.94;;;6.05;91.50
8641;BME280;4358;42.100;25.222;2023-03-19T04:21:27;100741.63;;;6.01;92.00
8641;BME280;4358;42.100;25.222;2023-03-19T04:23:54;100738.91;;;6.03;91.88
8641;BME280;4358;42.100;25.222;2023-03-19T04:26:22;100740.53;;;6.07;91.85
8641;BME280;4358;42.100;25.222;2023-03-19T04:28:49;100747.03;;;6.21;91.27
8641;BME280;4358;42.100;25.222;2023-03-19T04:31:16;100751.72;;;6.38;91.24
8641;BME280;4358;42.100;25.222;2023-03-19T04:33:43;100737.72;;;6.36;89.32
8641;BME280;4358;42.100;25.222;2023-03-19T04:36:10;100755.59;;;6.51;86.21
8641;BME280;4358;42.100;25.222;2023-03-19T04:38:37;100758.94;;;6.33;87.34
8641;BME280;4358;42.100;25.222;2023-03-19T04:41:04;100754.34;;;6.38;86.99
8641;BME280;4358;42.100;25.222;2023-03-19T04:43:32;100757.56;;;6.21;88.56
8641;BME280;4358;42.100;25.222;2023-03-19T04:45:59;100755.28;;;6.12;89.57
8641;BME280;4358;42.100;25.222;2023-03-19T04:48:26;100758.81;;;6.11;90.28
8641;BME280;4358;42.100;25.222;2023-03-19T04:50:53;100756.72;;;6.21;90.71
8641;BME280;4358;42.100;25.222;2023-03-19T04:53:21;100763.75;;;6.20;90.01
8641;BME280;4358;42.100;25.222;2023-03-19T04:55:48;100762.47;;;6.32;88.99
8641;BME280;4358;42.100;25.222;2023-03-19T04:58:16;100766.16;;;6.51;85.14
8641;BME280;4358;42.100;25.222;2023-03-19T05:00:44;100760.91;;;6.50;83.63
8641;BME280;4358;42.100;25.222;2023-03-19T05:03:12;100762.25;;;6.38;81.08
8641;BME280;4358;42.100;25.222;2023-03-19T05:05:39;100763.41;;;6.29;82.55
8641;BME280;4358;42.100;25.222;2023-03-19T05:08:06;100771.41;;;6.28;83.57
8641;BME280;4358;42.100;25.222;2023-03-19T05:10:34;100773.22;;;6.26;83.06
8641;BME280;4358;42.100;25.222;2023-03-19T05:13:01;100775.03;;;6.24;84.97
8641;BME280;4358;42.100;25.222;2023-03-19T05:15:28;100777.19;;;6.13;85.65
8641;BME280;4358;42.100;25.222;2023-03-19T05:17:56;100786.03;;;6.12;85.89
8641;BME280;4358;42.100;25.222;2023-03-19T05:20:23;100782.59;;;6.10;87.45
8641;BME280;4358;42.100;25.222;2023-03-19T05:22:51;100789.28;;;6.18;86.97
8641;BME280;4358;42.100;25.222;2023-03-19T05:25:18;100787.53;;;6.19;86.77
8641;BME280;4358;42.100;25.222;2023-03-19T05:27:45;100777.19;;;6.13;87.01
8641;BME280;4358;42.100;25.222;2023-03-19T05:30:12;100777.31;;;6.10;89.19
8641;BME280;4358;42.100;25.222;2023-03-19T05:32:39;100784.41;;;6.08;89.58
8641;BME280;4358;42.100;25.222;2023-03-19T05:35:09;100789.38;;;6.17;89.14
8641;BME280;4358;42.100;25.222;2023-03-19T05:37:36;100790.06;;;6.22;88.56
8641;BME280;4358;42.100;25.222;2023-03-19T05:40:03;100790.78;;;6.27;88.45
8641;BME280;4358;42.100;25.222;2023-03-19T05:42:30;100788.63;;;6.38;88.89
8641;BME280;4358;42.100;25.222;2023-03-19T05:44:57;100796.97;;;6.49;87.89
8641;BME280;4358;42.100;25.222;2023-03-19T05:47:24;100790.69;;;6.53;86.85
8641;BME280;4358;42.100;25.222;2023-03-19T05:49:51;100793.13;;;6.59;86.29
8641;BME280;4358;42.100;25.222;2023-03-19T05:52:19;100792.13;;;6.62;83.82
8641;BME280;4358;42.100;25.222;2023-03-19T05:54:46;100788.63;;;6.61;83.86
8641;BME280;4358;42.100;25.222;2023-03-19T05:57:15;100786.00;;;6.61;82.73
8641;BME280;4358;42.100;25.222;2023-03-19T05:59:42;100787.72;;;6.62;82.13
8641;BME280;4358;42.100;25.222;2023-03-19T06:02:09;100788.69;;;6.60;81.82
8641;BME280;4358;42.100;25.222;2023-03-19T06:04:36;100787.59;;;6.65;83.05
8641;BME280;4358;42.100;25.222;2023-03-19T06:07:03;100790.59;;;6.79;81.84
8641;BME280;4358;42.100;25.222;2023-03-19T06:09:31;100793.56;;;6.94;79.94
8641;BME280;4358;42.100;25.222;2023-03-19T06:11:58;100798.50;;;7.03;80.92
8641;BME280;4358;42.100;25.222;2023-03-19T06:14:25;100789.44;;;7.10;81.76
8641;BME280;4358;42.100;25.222;2023-03-19T06:16:52;100801.53;;;7.15;81.53
8641;BME280;4358;42.100;25.222;2023-03-19T06:19:19;100803.09;;;7.21;82.10
8641;BME280;4358;42.100;25.222;2023-03-19T06:21:47;100789.69;;;7.26;79.26
8641;BME280;4358;42.100;25.222;2023-03-19T06:24:14;100798.41;;;7.49;79.57
8641;BME280;4358;42.100;25.222;2023-03-19T06:26:42;100789.81;;;7.66;77.11
8641;BME280;4358;42.100;25.222;2023-03-19T06:29:09;100794.72;;;7.75;78.25
8641;BME280;4358;42.100;25.222;2023-03-19T06:31:36;100794.94;;;7.91;77.18
8641;BME280;4358;42.100;25.222;2023-03-19T06:34:06;100793.44;;;8.05;73.42
8641;BME280;4358;42.100;25.222;2023-03-19T06:36:33;100781.47;;;8.17;73.57
8641;BME280;4358;42.100;25.222;2023-03-19T06:38:59;100767.72;;;8.09;70.76
8641;BME280;4358;42.100;25.222;2023-03-19T06:41:27;100794.22;;;8.28;68.55
8641;BME280;4358;42.100;25.222;2023-03-19T06:43:55;100792.75;;;8.42;67.48
8641;BME280;4358;42.100;25.222;2023-03-19T06:46:22;100781.59;;;8.55;68.27
8641;BME280;4358;42.100;25.222;2023-03-19T06:48:49;100783.06;;;8.80;68.37
8641;BME280;4358;42.100;25.222;2023-03-19T06:51:16;100797.38;;;8.95;65.68
8641;BME280;4358;42.100;25.222;2023-03-19T06:53:43;100795.69;;;9.13;62.71
8641;BME280;4358;42.100;25.222;2023-03-19T06:56:10;100794.97;;;9.28;62.44
8641;BME280;4358;42.100;25.222;2023-03-19T06:58:36;100792.25;;;9.29;60.64
8641;BME280;4358;42.100;25.222;2023-03-19T07:01:05;100746.06;;;9.16;59.77
8641;BME280;4358;42.100;25.222;2023-03-19T07:03:32;100786.22;;;9.45;58.77
8641;BME280;4358;42.100;25.222;2023-03-19T07:05:59;100793.06;;;9.49;59.39
8641;BME280;4358;42.100;25.222;2023-03-19T07:08:26;100797.50;;;9.67;57.01
8641;BME280;4358;42.100;25.222;2023-03-19T07:10:54;100810.28;;;9.76;56.34
8641;BME280;4358;42.100;25.222;2023-03-19T07:13:21;100798.88;;;9.74;54.52
8641;BME280;4358;42.100;25.222;2023-03-19T07:15:48;100798.50;;;9.64;55.53
8641;BME280;4358;42.100;25.222;2023-03-19T07:18:16;100786.25;;;9.62;56.74
8641;BME280;4358;42.100;25.222;2023-03-19T07:20:43;100797.03;;;9.76;56.53
8641;BME280;4358;42.100;25.222;2023-03-19T07:23:10;100804.00;;;9.78;56.55
8641;BME280;4358;42.100;25.222;2023-03-19T07:25:37;100793.16;;;9.83;57.97
8641;BME280;4358;42.100;25.222;2023-03-19T07:28:04;100793.00;;;9.86;55.92
8641;BME280;4358;42.100;25.222;2023-03-19T07:30:31;100788.72;;;9.84;55.48
8641;BME280;4358;42.100;25.222;2023-03-19T07:32:58;100794.72;;;9.87;55.44
8641;BME280;4358;42.100;25.222;2023-03-19T07:35:26;100798.78;;;9.94;54.60
8641;BME280;4358;42.100;25.222;2023-03-19T07:37:53;100781.63;;;10.01;55.80
8641;BME280;4358;42.100;25.222;2023-03-19T07:40:20;100783.50;;;10.16;56.61
8641;BME280;4358;42.100;25.222;2023-03-19T07:42:46;100790.47;;;10.19;55.06
8641;BME280;4358;42.100;25.222;2023-03-19T07:45:13;100787.28;;;10.30;56.04
8641;BME280;4358;42.100;25.222;2023-03-19T07:47:40;100777.47;;;10.47;56.36
8641;BME280;4358;42.100;25.222;2023-03-19T07:50:08;100769.47;;;10.65;55.69
8641;BME280;4358;42.100;25.222;2023-03-19T07:52:36;100768.03;;;10.75;56.02
8641;BME280;4358;42.100;25.222;2023-03-19T07:55:04;100771.22;;;10.81;55.07
8641;BME280;4358;42.100;25.222;2023-03-19T07:57:31;100773.72;;;11.00;53.13
8641;BME280;4358;42.100;25.222;2023-03-19T07:59:58;100774.34;;;11.05;52.30
8641;BME280;4358;42.100;25.222;2023-03-19T08:02:25;100763.44;;;11.10;53.29
8641;BME280;4358;42.100;25.222;2023-03-19T08:04:52;100758.13;;;11.41;53.40
8641;BME280;4358;42.100;25.222;2023-03-19T08:07:19;100759.50;;;11.48;51.64
8641;BME280;4358;42.100;25.222;2023-03-19T08:09:47;100762.41;;;11.59;51.08
8641;BME280;4358;42.100;25.222;2023-03-19T08:12:14;100753.22;;;11.80;51.39
8641;BME280;4358;42.100;25.222;2023-03-19T08:14:41;100762.38;;;11.91;50.67
8641;BME280;4358;42.100;25.222;2023-03-19T08:17:07;100756.34;;;12.03;49.63
8641;BME280;4358;42.100;25.222;2023-03-19T08:19:34;100759.38;;;12.11;49.37
8641;BME280;4358;42.100;25.222;2023-03-19T08:22:01;100756.06;;;12.21;49.06
8641;BME280;4358;42.100;25.222;2023-03-19T08:24:28;100759.22;;;12.28;48.61
8641;BME280;4358;42.100;25.222;2023-03-19T08:26:56;100753.44;;;12.36;48.17
8641;BME280;4358;42.100;25.222;2023-03-19T08:29:23;100740.22;;;12.34;47.38
8641;BME280;4358;42.100;25.222;2023-03-19T08:31:51;100744.78;;;12.46;46.32
8641;BME280;4358;42.100;25.222;2023-03-19T08:34:18;100739.66;;;12.57;47.60
8641;BME280;4358;42.100;25.222;2023-03-19T08:36:46;100716.06;;;12.51;43.35
8641;BME280;4358;42.100;25.222;2023-03-19T08:39:13;100738.41;;;12.77;47.06
8641;BME280;4358;42.100;25.222;2023-03-19T08:41:40;100741.66;;;12.82;46.74
8641;BME280;4358;42.100;25.222;2023-03-19T08:44:08;100733.91;;;13.06;45.35
8641;BME280;4358;42.100;25.222;2023-03-19T08:46:35;100732.97;;;13.21;43.68
8641;BME280;4358;42.100;25.222;2023-03-19T08:49:02;100727.69;;;13.34;43.96
8641;BME280;4358;42.100;25.222;2023-03-19T08:51:29;100729.19;;;13.38;44.81
8641;BME280;4358;42.100;25.222;2023-03-19T08:53:56;100726.06;;;13.58;44.93
8641;BME280;4358;42.100;25.222;2023-03-19T08:56:23;100731.31;;;13.60;43.82
8641;BME280;4358;42.100;25.222;2023-03-19T08:58:50;100725.66;;;13.64;43.10
8641;BME280;4358;42.100;25.222;2023-03-19T09:01:18;100714.59;;;13.70;43.51
8641;BME280;4358;42.100;25.222;2023-03-19T09:03:45;100715.50;;;13.96;41.85
8641;BME280;4358;42.100;25.222;2023-03-19T09:06:12;100720.66;;;14.12;40.72
8641;BME280;4358;42.100;25.222;2023-03-19T09:08:40;100711.91;;;14.22;42.30
8641;BME280;4358;42.100;25.222;2023-03-19T09:11:08;100709.22;;;14.22;41.45
8641;BME280;4358;42.100;25.222;2023-03-19T09:13:35;100700.81;;;14.28;41.94
8641;BME280;4358;42.100;25.222;2023-03-19T09:16:02;100703.81;;;14.36;42.31
8641;BME280;4358;42.100;25.222;2023-03-19T09:18:31;100700.34;;;14.34;43.15
8641;BME280;4358;42.100;25.222;2023-03-19T09:20:57;100699.09;;;14.40;42.79
8641;BME280;4358;42.100;25.222;2023-03-19T09:23:25;100699.28;;;14.62;42.28
8641;BME280;4358;42.100;25.222;2023-03-19T09:25:52;100695.44;;;14.66;42.47
8641;BME280;4358;42.100;25.222;2023-03-19T09:28:19;100693.94;;;14.75;43.34
8641;BME280;4358;42.100;25.222;2023-03-19T09:30:46;100692.69;;;15.04;43.80
8641;BME280;4358;42.100;25.222;2023-03-19T09:33:14;100682.16;;;15.14;43.01
8641;BME280;4358;42.100;25.222;2023-03-19T09:35:42;100676.25;;;15.21;43.11
8641;BME280;4358;42.100;25.222;2023-03-19T09:38:09;100680.69;;;15.34;43.81
8641;BME280;4358;42.100;25.222;2023-03-19T09:40:38;100649.53;;;15.21;45.01
8641;BME280;4358;42.100;25.222;2023-03-19T09:43:20;100667.16;;;15.48;44.51
8641;BME280;4358;42.100;25.222;2023-03-19T09:45:53;100664.16;;;15.52;44.55
8641;BME280;4358;42.100;25.222;2023-03-19T09:48:26;100664.84;;;15.78;44.59
8641;BME280;4358;42.100;25.222;2023-03-19T09:50:58;100658.25;;;15.71;44.46
8641;BME280;4358;42.100;25.222;2023-03-19T09:53:34;100649.34;;;16.05;44.62
8641;BME280;4358;42.100;25.222;2023-03-19T09:56:06;100652.28;;;16.25;44.33
8641;BME280;4358;42.100;25.222;2023-03-19T09:58:35;100650.31;;;16.16;45.41
8641;BME280;4358;42.100;25.222;2023-03-19T10:01:02;100644.09;;;16.04;45.35
8641;BME280;4358;42.100;25.222;2023-03-19T10:03:44;100642.53;;;16.24;45.01
8641;BME280;4358;42.100;25.222;2023-03-19T10:06:30;100634.88;;;16.30;45.78
8641;BME280;4358;42.100;25.222;2023-03-19T10:09:15;100644.13;;;16.26;44.70
8641;BME280;4358;42.100;25.222;2023-03-19T10:11:57;100616.59;;;16.35;45.56
8641;BME280;4358;42.100;25.222;2023-03-19T10:17:30;100624.63;;;16.46;44.05
8641;BME280;4358;42.100;25.222;2023-03-19T10:20:03;100612.31;;;16.55;45.58
8641;BME280;4358;42.100;25.222;2023-03-19T10:22:35;100607.63;;;16.59;45.57
8641;BME280;4358;42.100;25.222;2023-03-19T10:25:09;100612.28;;;17.00;44.90
8641;BME280;4358;42.100;25.222;2023-03-19T10:27:37;100607.22;;;17.17;43.81
8641;BME280;4358;42.100;25.222;2023-03-19T10:30:12;100600.06;;;17.07;44.49
8641;BME280;4358;42.100;25.222;2023-03-19T10:32:41;100596.66;;;17.05;44.43
8641;BME280;4358;42.100;25.222;2023-03-19T10:35:17;100582.56;;;16.91;44.28
8641;BME280;4358;42.100;25.222;2023-03-19T10:37:46;100589.09;;;17.10;44.43
8641;BME280;4358;42.100;25.222;2023-03-19T10:40:20;100588.22;;;17.41;43.54
8641;BME280;4358;42.100;25.222;2023-03-19T10:43:05;100571.31;;;17.50;43.79
8641;BME280;4358;42.100;25.222;2023-03-19T10:45:37;100574.72;;;17.63;43.68
8641;BME280;4358;42.100;25.222;2023-03-19T10:48:05;100570.50;;;17.70;43.47
8641;BME280;4358;42.100;25.222;2023-03-19T10:50:34;100557.81;;;17.72;43.19
8641;BME280;4358;42.100;25.222;2023-03-19T10:53:09;100560.34;;;17.53;43.32
8641;BME280;4358;42.100;25.222;2023-03-19T10:55:50;100547.47;;;17.68;43.38
8641;BME280;4358;42.100;25.222;2023-03-19T10:58:22;100527.97;;;17.96;43.04
8641;BME280;4358;42.100;25.222;2023-03-19T11:00:55;100542.22;;;18.27;42.53
8641;BME280;4358;42.100;25.222;2023-03-19T11:03:29;100526.28;;;18.35;42.04
8641;BME280;4358;42.100;25.222;2023-03-19T11:06:04;100528.97;;;18.35;42.79
8641;BME280;4358;42.100;25.222;2023-03-19T11:08:35;100513.91;;;18.23;41.97
8641;BME280;4358;42.100;25.222;2023-03-19T11:11:03;100518.47;;;18.32;41.89
8641;BME280;4358;42.100;25.222;2023-03-19T11:13:33;100513.91;;;18.13;42.46
8641;BME280;4358;42.100;25.222;2023-03-19T11:16:02;100503.91;;;18.25;42.81
8641;BME280;4358;42.100;25.222;2023-03-19T11:18:35;100488.47;;;18.27;42.51
8641;BME280;4358;42.100;25.222;2023-03-19T11:21:06;100495.84;;;18.25;43.06
8641;BME280;4358;42.100;25.222;2023-03-19T11:23:39;100493.84;;;18.27;42.85
8641;BME280;4358;42.100;25.222;2023-03-19T11:26:06;100490.78;;;18.41;42.63
8641;BME280;4358;42.100;25.222;2023-03-19T11:28:35;100481.78;;;18.61;42.23
8641;BME280;4358;42.100;25.222;2023-03-19T11:31:09;100475.28;;;18.93;41.82
8641;BME280;4358;42.100;25.222;2023-03-19T11:33:46;100471.88;;;18.91;41.98
8641;BME280;4358;42.100;25.222;2023-03-19T11:36:22;100477.53;;;19.17;41.46
8641;BME280;4358;42.100;25.222;2023-03-19T11:39:11;100469.28;;;19.37;41.14
8641;BME280;4358;42.100;25.222;2023-03-19T11:41:51;100472.13;;;19.36;40.97
8641;BME280;4358;42.100;25.222;2023-03-19T11:44:26;100461.19;;;19.57;40.83
8641;BME280;4358;42.100;25.222;2023-03-19T11:46:59;100454.22;;;19.64;41.13
8641;BME280;4358;42.100;25.222;2023-03-19T11:49:41;100455.41;;;19.79;40.65
8641;BME280;4358;42.100;25.222;2023-03-19T11:52:16;100447.81;;;20.02;40.15
8641;BME280;4358;42.100;25.222;2023-03-19T11:54:57;100443.47;;;20.18;39.59
8641;BME280;4358;42.100;25.222;2023-03-19T11:57:43;100432.09;;;20.24;38.79
8641;BME280;4358;42.100;25.222;2023-03-19T12:00:26;100429.28;;;20.16;39.11
8641;BME280;4358;42.100;25.222;2023-03-19T12:03:12;100430.97;;;20.17;38.51
8641;BME280;4358;42.100;25.222;2023-03-19T12:05:50;100428.19;;;20.37;38.32
8641;BME280;4358;42.100;25.222;2023-03-19T12:08:30;100426.75;;;20.60;37.62
8641;BME280;4358;42.100;25.222;2023-03-19T12:11:08;100428.28;;;20.45;36.91
8641;BME280;4358;42.100;25.222;2023-03-19T12:13:48;100424.28;;;20.21;37.46
8641;BME280;4358;42.100;25.222;2023-03-19T12:16:25;100422.44;;;20.22;37.03
8641;BME280;4358;42.100;25.222;2023-03-19T12:19:19;100423.59;;;20.19;37.15
8641;BME280;4358;42.100;25.222;2023-03-19T12:22:00;100426.13;;;20.21;37.77
8641;BME280;4358;42.100;25.222;2023-03-19T12:24:38;100426.06;;;20.13;37.70
8641;BME280;4358;42.100;25.222;2023-03-19T12:27:19;100422.13;;;20.35;38.25
8641;BME280;4358;42.100;25.222;2023-03-19T12:29:53;100415.47;;;20.47;37.85
8641;BME280;4358;42.100;25.222;2023-03-19T12:32:33;100415.19;;;20.50;38.02
8641;BME280;4358;42.100;25.222;2023-03-19T12:35:07;100420.88;;;20.47;37.71
8641;BME280;4358;42.100;25.222;2023-03-19T12:37:40;100417.19;;;20.65;36.99
8641;BME280;4358;42.100;25.222;2023-03-19T12:40:20;100414.25;;;20.77;36.89
8641;BME280;4358;42.100;25.222;2023-03-19T12:42:49;100409.47;;;20.88;36.74
8641;BME280;4358;42.100;25.222;2023-03-19T12:45:25;100396.66;;;20.90;36.41
8641;BME280;4358;42.100;25.222;2023-03-19T12:47:57;100406.59;;;20.90;36.63
8641;BME280;4358;42.100;25.222;2023-03-19T12:50:26;100401.19;;;20.90;36.81
8641;BME280;4358;42.100;25.222;2023-03-19T12:52:57;100399.81;;;21.03;36.75
8641;BME280;4358;42.100;25.222;2023-03-19T12:55:34;100401.19;;;21.07;36.54
8641;BME280;4358;42.100;25.222;2023-03-19T12:58:08;100388.31;;;21.01;36.95
8641;BME280;4358;42.100;25.222;2023-03-19T13:00:41;100384.50;;;20.86;37.25
8641;BME280;4358;42.100;25.222;2023-03-19T13:03:16;100391.97;;;20.92;37.31
8641;BME280;4358;42.100;25.222;2023-03-19T13:05:48;100383.88;;;20.92;37.01
8641;BME280;4358;42.100;25.222;2023-03-19T13:08:22;100385.88;;;20.90;36.71
8641;BME280;4358;42.100;25.222;2023-03-19T13:10:52;100380.78;;;20.87;37.21
8641;BME280;4358;42.100;25.222;2023-03-19T13:13:36;100379.69;;;20.98;36.71
8641;BME280;4358;42.100;25.222;2023-03-19T13:16:11;100380.91;;;21.03;36.75
8641;BME280;4358;42.100;25.222;2023-03-19T13:18:46;100373.50;;;20.62;37.21
8641;BME280;4358;42.100;25.222;2023-03-19T13:21:22;100371.25;;;20.75;37.27
8641;BME280;4358;42.100;25.222;2023-03-19T13:23:59;100360.94;;;20.96;36.61
8641;BME280;4358;42.100;25.222;2023-03-19T13:26:28;100368.47;;;21.10;36.67